sensor_id;sensor_type;location;lat;lon;timestamp;temperature;humidity
44215;DHT22;29884;47.450;19.124;2022-07-23T00:01:23;25.50;93.90
44215;DHT22;29884;47.450;19.124;2022-07-23T00:03:49;25.50;94.60
44215;DHT22;29884;47.450;19.124;2022-07-23T00:06:17;25.40;94.70
44215;DHT22;29884;47.450;19.124;2022-07-23T00:08:43;25.40;95.20
44215;DHT22;29884;47.450;19.124;2022-07-23T00:11:09;25.30;95.60
44215;DHT22;29884;47.450;19.124;2022-07-23T00:13:34;25.30;95.40
44215;DHT22;29884;47.450;19.124;2022-07-23T00:16:00;25.30;95.50
44215;DHT22;29884;47.450;19.124;2022-07-23T00:18:26;25.30;95.90
44215;DHT22;29884;47.450;19.124;2022-07-23T00:20:52;25.30;96.20
44215;DHT22;29884;47.450;19.124;2022-07-23T00:23:18;25.20;96.10
44215;DHT22;29884;47.450;19.124;2022-07-23T00:25:43;25.20;96.10
44215;DHT22;29884;47.450;19.124;2022-07-23T00:28:11;25.20;96.60
44215;DHT22;29884;47.450;19.124;2022-07-23T00:30:37;25.20;96.60
44215;DHT22;29884;47.450;19.124;2022-07-23T00:33:05;25.10;96.50
44215;DHT22;29884;47.450;19.124;2022-07-23T00:35:34;25.10;96.40
44215;DHT22;29884;47.450;19.124;2022-07-23T00:38:00;25.10;96.50
44215;DHT22;29884;47.450;19.124;2022-07-23T00:40:27;25.00;95.80
44215;DHT22;29884;47.450;19.124;2022-07-23T00:42:53;25.10;95.50
44215;DHT22;29884;47.450;19.124;2022-07-23T00:45:19;25.10;95.30
44215;DHT22;29884;47.450;19.124;2022-07-23T00:47:45;25.10;95.20
44215;DHT22;29884;47.450;19.124;2022-07-23T00:50:11;25.00;94.90
44215;DHT22;29884;47.450;19.124;2022-07-23T00:52:38;24.90;95.70
44215;DHT22;29884;47.450;19.124;2022-07-23T00:55:05;24.90;96.20
44215;DHT22;29884;47.450;19.124;2022-07-23T00:57:31;24.80;96.50
44215;DHT22;29884;47.450;19.124;2022-07-23T00:59:57;24.80;96.60
44215;DHT22;29884;47.450;19.124;2022-07-23T01:02:24;24.80;96.70
44215;DHT22;29884;47.450;19.124;2022-07-23T01:04:50;24.80;97.00
44215;DHT22;29884;47.450;19.124;2022-07-23T01:07:17;24.80;97.10
44215;DHT22;29884;47.450;19.124;2022-07-23T01:09:45;24.80;96.90
44215;DHT22;29884;47.450;19.124;2022-07-23T01:12:11;24.80;96.90
44215;DHT22;29884;47.450;19.124;2022-07-23T01:14:37;24.80;96.90
44215;DHT22;29884;47.450;19.124;2022-07-23T01:17:04;24.70;97.30
44215;DHT22;29884;47.450;19.124;2022-07-23T01:19:30;24.70;97.10
44215;DHT22;29884;47.450;19.124;2022-07-23T01:21:57;24.60;97.10
44215;DHT22;29884;47.450;19.124;2022-07-23T01:24:24;24.60;97.10
44215;DHT22;29884;47.450;19.124;2022-07-23T01:26:50;24.60;97.20
44215;DHT22;29884;47.450;19.124;2022-07-23T01:29:16;24.60;97.50
44215;DHT22;29884;47.450;19.124;2022-07-23T01:31:42;24.60;97.60
44215;DHT22;29884;47.450;19.124;2022-07-23T01:34:08;24.60;97.90
44215;DHT22;29884;47.450;19.124;2022-07-23T01:36:34;24.60;97.70
44215;DHT22;29884;47.450;19.124;2022-07-23T01:39:00;24.50;98.30
44215;DHT22;29884;47.450;19.124;2022-07-23T01:41:26;24.50;98.30
44215;DHT22;29884;47.450;19.124;2022-07-23T01:43:52;24.50;97.70
44215;DHT22;29884;47.450;19.124;2022-07-23T01:46:17;24.40;97.30
44215;DHT22;29884;47.450;19.124;2022-07-23T01:48:43;24.50;97.80
44215;DHT22;29884;47.450;19.124;2022-07-23T01:51:09;24.40;97.60
44215;DHT22;29884;47.450;19.124;2022-07-23T01:53:35;24.40;98.20
44215;DHT22;29884;47.450;19.124;2022-07-23T01:56:01;24.40;97.80
44215;DHT22;29884;47.450;19.124;2022-07-23T01:58:27;24.30;98.50
44215;DHT22;29884;47.450;19.124;2022-07-23T02:00:53;24.30;98.50
44215;DHT22;29884;47.450;19.124;2022-07-23T02:03:20;24.30;98.80
44215;DHT22;29884;47.450;19.124;2022-07-23T02:05:45;24.20;98.80
44215;DHT22;29884;47.450;19.124;2022-07-23T02:08:11;24.30;99.10
44215;DHT22;29884;47.450;19.124;2022-07-23T02:10:37;24.20;99.10
44215;DHT22;29884;47.450;19.124;2022-07-23T02:13:03;24.20;99.20
44215;DHT22;29884;47.450;19.124;2022-07-23T02:15:29;24.10;99.90
44215;DHT22;29884;47.450;19.124;2022-07-23T02:17:55;24.00;99.90
44215;DHT22;29884;47.450;19.124;2022-07-23T02:20:21;24.00;99.90
44215;DHT22;29884;47.450;19.124;2022-07-23T02:22:47;24.00;99.90
44215;DHT22;29884;47.450;19.124;2022-07-23T02:25:13;24.00;99.90
44215;DHT22;29884;47.450;19.124;2022-07-23T02:27:39;23.90;99.90
44215;DHT22;29884;47.450;19.124;2022-07-23T02:30:06;23.90;99.90
44215;DHT22;29884;47.450;19.124;2022-07-23T02:32:32;23.90;99.90
44215;DHT22;29884;47.450;19.124;2022-07-23T02:34:58;23.90;99.90
44215;DHT22;29884;47.450;19.124;2022-07-23T02:37:24;23.90;99.90
44215;DHT22;29884;47.450;19.124;2022-07-23T02:39:49;23.90;99.90
44215;DHT22;29884;47.450;19.124;2022-07-23T02:42:15;23.80;99.90
44215;DHT22;29884;47.450;19.124;2022-07-23T02:44:41;23.70;99.90
44215;DHT22;29884;47.450;19.124;2022-07-23T02:47:07;23.70;99.90
44215;DHT22;29884;47.450;19.124;2022-07-23T02:49:33;23.70;99.90
44215;DHT22;29884;47.450;19.124;2022-07-23T02:51:58;23.60;99.90
44215;DHT22;29884;47.450;19.124;2022-07-23T02:54:24;23.60;99.90
44215;DHT22;29884;47.450;19.124;2022-07-23T02:56:50;23.60;99.90
44215;DHT22;29884;47.450;19.124;2022-07-23T02:59:17;23.50;99.90
44215;DHT22;29884;47.450;19.124;2022-07-23T03:01:43;23.50;99.90
44215;DHT22;29884;47.450;19.124;2022-07-23T03:04:09;23.50;99.90
44215;DHT22;29884;47.450;19.124;2022-07-23T03:06:35;23.50;99.90
44215;DHT22;29884;47.450;19.124;2022-07-23T03:09:01;23.50;99.90
44215;DHT22;29884;47.450;19.124;2022-07-23T03:11:27;23.50;99.90
44215;DHT22;29884;47.450;19.124;2022-07-23T03:13:52;23.60;99.90
44215;DHT22;29884;47.450;19.124;2022-07-23T03:16:18;23.70;99.90
44215;DHT22;29884;47.450;19.124;2022-07-23T03:18:44;23.80;99.90
44215;DHT22;29884;47.450;19.124;2022-07-23T03:21:10;23.80;99.90
44215;DHT22;29884;47.450;19.124;2022-07-23T03:23:35;23.80;99.90
44215;DHT22;29884;47.450;19.124;2022-07-23T03:26:01;23.80;99.90
44215;DHT22;29884;47.450;19.124;2022-07-23T03:28:27;23.80;99.90
44215;DHT22;29884;47.450;19.124;2022-07-23T03:30:53;23.80;99.90
44215;DHT22;29884;47.450;19.124;2022-07-23T03:33:19;23.80;99.70
44215;DHT22;29884;47.450;19.124;2022-07-23T03:35:46;23.80;99.60
44215;DHT22;29884;47.450;19.124;2022-07-23T03:38:12;23.80;99.90
44215;DHT22;29884;47.450;19.124;2022-07-23T03:40:38;23.80;99.90
44215;DHT22;29884;47.450;19.124;2022-07-23T03:43:04;23.80;99.30
44215;DHT22;29884;47.450;19.124;2022-07-23T03:45:30;23.90;98.90
44215;DHT22;29884;47.450;19.124;2022-07-23T03:47:56;24.00;98.60
44215;DHT22;29884;47.450;19.124;2022-07-23T03:50:22;24.00;98.10
44215;DHT22;29884;47.450;19.124;2022-07-23T03:52:48;24.00;97.90
44215;DHT22;29884;47.450;19.124;2022-07-23T03:55:14;24.10;97.80
44215;DHT22;29884;47.450;19.124;2022-07-23T03:57:40;24.20;97.20
44215;DHT22;29884;47.450;19.124;2022-07-23T04:00:07;24.20;96.60
44215;DHT22;29884;47.450;19.124;2022-07-23T04:02:34;24.20;96.60
44215;DHT22;29884;47.450;19.124;2022-07-23T04:05:00;24.30;96.40
44215;DHT22;29884;47.450;19.124;2022-07-23T04:07:26;24.30;95.90
44215;DHT22;29884;47.450;19.124;2022-07-23T04:09:52;24.40;95.80
44215;DHT22;29884;47.450;19.124;2022-07-23T04:12:18;24.50;95.80
44215;DHT22;29884;47.450;19.124;2022-07-23T04:14:44;24.50;95.50
44215;DHT22;29884;47.450;19.124;2022-07-23T04:17:10;24.50;95.20
44215;DHT22;29884;47.450;19.124;2022-07-23T04:19:36;24.50;95.30
44215;DHT22;29884;47.450;19.124;2022-07-23T04:22:06;24.50;95.20
44215;DHT22;29884;47.450;19.124;2022-07-23T04:24:32;24.60;95.40
44215;DHT22;29884;47.450;19.124;2022-07-23T04:26:58;24.60;95.30
44215;DHT22;29884;47.450;19.124;2022-07-23T04:29:24;24.60;95.20
44215;DHT22;29884;47.450;19.124;2022-07-23T04:31:50;24.60;95.30
44215;DHT22;29884;47.450;19.124;2022-07-23T04:34:15;24.60;95.20
44215;DHT22;29884;47.450;19.124;2022-07-23T04:36:41;24.60;95.50
44215;DHT22;29884;47.450;19.124;2022-07-23T04:39:07;24.60;95.40
44215;DHT22;29884;47.450;19.124;2022-07-23T04:41:33;24.60;95.30
44215;DHT22;29884;47.450;19.124;2022-07-23T04:44:00;24.50;95.70
44215;DHT22;29884;47.450;19.124;2022-07-23T04:46:26;24.60;95.70
44215;DHT22;29884;47.450;19.124;2022-07-23T04:48:52;24.70;95.10
44215;DHT22;29884;47.450;19.124;2022-07-23T04:51:18;24.80;95.00
44215;DHT22;29884;47.450;19.124;2022-07-23T04:53:43;24.80;94.80
44215;DHT22;29884;47.450;19.124;2022-07-23T04:56:09;24.80;94.40
44215;DHT22;29884;47.450;19.124;2022-07-23T04:58:35;24.80;94.80
44215;DHT22;29884;47.450;19.124;2022-07-23T05:01:01;24.80;94.20
44215;DHT22;29884;47.450;19.124;2022-07-23T05:03:27;24.80;93.90
44215;DHT22;29884;47.450;19.124;2022-07-23T05:05:53;24.80;93.60
44215;DHT22;29884;47.450;19.124;2022-07-23T05:08:19;24.90;93.60
44215;DHT22;29884;47.450;19.124;2022-07-23T05:10:45;25.00;93.30
44215;DHT22;29884;47.450;19.124;2022-07-23T05:13:10;25.00;93.20
44215;DHT22;29884;47.450;19.124;2022-07-23T05:15:36;25.20;92.80
44215;DHT22;29884;47.450;19.124;2022-07-23T05:18:02;25.30;92.80
44215;DHT22;29884;47.450;19.124;2022-07-23T05:20:28;25.30;91.90
44215;DHT22;29884;47.450;19.124;2022-07-23T05:22:54;25.40;91.20
44215;DHT22;29884;47.450;19.124;2022-07-23T05:25:20;25.50;91.90
44215;DHT22;29884;47.450;19.124;2022-07-23T05:27:45;25.50;90.80
44215;DHT22;29884;47.450;19.124;2022-07-23T05:30:11;25.60;90.30
44215;DHT22;29884;47.450;19.124;2022-07-23T05:32:37;25.60;90.10
44215;DHT22;29884;47.450;19.124;2022-07-23T05:35:05;25.70;88.00
44215;DHT22;29884;47.450;19.124;2022-07-23T05:37:30;25.80;88.20
44215;DHT22;29884;47.450;19.124;2022-07-23T05:40:06;25.80;87.10
44215;DHT22;29884;47.450;19.124;2022-07-23T05:42:36;25.90;87.50
44215;DHT22;29884;47.450;19.124;2022-07-23T05:45:03;26.00;85.50
44215;DHT22;29884;47.450;19.124;2022-07-23T05:47:39;26.00;85.90
44215;DHT22;29884;47.450;19.124;2022-07-23T05:50:05;26.00;86.00
44215;DHT22;29884;47.450;19.124;2022-07-23T05:52:31;26.10;84.30
44215;DHT22;29884;47.450;19.124;2022-07-23T05:54:57;26.30;83.20
44215;DHT22;29884;47.450;19.124;2022-07-23T05:57:22;26.40;84.30
44215;DHT22;29884;47.450;19.124;2022-07-23T05:59:48;26.40;83.70
44215;DHT22;29884;47.450;19.124;2022-07-23T06:02:14;26.40;83.90
44215;DHT22;29884;47.450;19.124;2022-07-23T06:04:39;26.70;82.40
44215;DHT22;29884;47.450;19.124;2022-07-23T06:07:05;26.70;82.10
44215;DHT22;29884;47.450;19.124;2022-07-23T06:09:31;26.70;82.70
44215;DHT22;29884;47.450;19.124;2022-07-23T06:11:57;26.80;82.00
44215;DHT22;29884;47.450;19.124;2022-07-23T06:14:23;26.70;82.90
44215;DHT22;29884;47.450;19.124;2022-07-23T06:16:48;26.80;81.80
44215;DHT22;29884;47.450;19.124;2022-07-23T06:19:14;26.90;81.50
44215;DHT22;29884;47.450;19.124;2022-07-23T06:21:40;27.20;80.80
44215;DHT22;29884;47.450;19.124;2022-07-23T06:24:06;27.40;79.70
44215;DHT22;29884;47.450;19.124;2022-07-23T06:26:31;27.50;79.80
44215;DHT22;29884;47.450;19.124;2022-07-23T06:28:57;27.50;79.10
44215;DHT22;29884;47.450;19.124;2022-07-23T06:31:23;27.60;80.80
44215;DHT22;29884;47.450;19.124;2022-07-23T06:33:49;27.60;80.40
44215;DHT22;29884;47.450;19.124;2022-07-23T06:36:15;27.70;79.20
44215;DHT22;29884;47.450;19.124;2022-07-23T06:38:41;27.80;77.90
44215;DHT22;29884;47.450;19.124;2022-07-23T06:41:06;27.80;77.70
44215;DHT22;29884;47.450;19.124;2022-07-23T06:43:32;27.90;77.20
44215;DHT22;29884;47.450;19.124;2022-07-23T06:45:58;28.00;77.00
44215;DHT22;29884;47.450;19.124;2022-07-23T06:48:23;28.20;76.40
44215;DHT22;29884;47.450;19.124;2022-07-23T06:50:49;28.40;75.70
44215;DHT22;29884;47.450;19.124;2022-07-23T06:53:15;28.40;74.90
44215;DHT22;29884;47.450;19.124;2022-07-23T06:55:40;28.50;74.60
44215;DHT22;29884;47.450;19.124;2022-07-23T06:58:06;28.80;73.90
44215;DHT22;29884;47.450;19.124;2022-07-23T07:00:32;29.00;71.30
44215;DHT22;29884;47.450;19.124;2022-07-23T07:02:58;29.00;72.60
44215;DHT22;29884;47.450;19.124;2022-07-23T07:05:24;28.90;72.50
44215;DHT22;29884;47.450;19.124;2022-07-23T07:07:55;29.00;72.30
44215;DHT22;29884;47.450;19.124;2022-07-23T07:10:22;29.00;71.10
44215;DHT22;29884;47.450;19.124;2022-07-23T07:12:48;29.30;71.10
44215;DHT22;29884;47.450;19.124;2022-07-23T07:15:13;29.50;70.40
44215;DHT22;29884;47.450;19.124;2022-07-23T07:17:39;29.70;69.50
44215;DHT22;29884;47.450;19.124;2022-07-23T07:20:05;29.80;68.70
44215;DHT22;29884;47.450;19.124;2022-07-23T07:22:31;29.80;68.80
44215;DHT22;29884;47.450;19.124;2022-07-23T07:24:57;29.70;69.00
44215;DHT22;29884;47.450;19.124;2022-07-23T07:27:23;29.80;68.80
44215;DHT22;29884;47.450;19.124;2022-07-23T07:29:48;29.80;68.90
44215;DHT22;29884;47.450;19.124;2022-07-23T07:32:14;29.90;67.90
44215;DHT22;29884;47.450;19.124;2022-07-23T07:34:40;30.20;68.20
44215;DHT22;29884;47.450;19.124;2022-07-23T07:37:05;30.40;65.90
44215;DHT22;29884;47.450;19.124;2022-07-23T07:39:31;30.40;66.10
44215;DHT22;29884;47.450;19.124;2022-07-23T07:41:57;30.40;66.20
44215;DHT22;29884;47.450;19.124;2022-07-23T07:44:22;30.50;67.20
44215;DHT22;29884;47.450;19.124;2022-07-23T07:46:48;30.60;66.90
44215;DHT22;29884;47.450;19.124;2022-07-23T07:49:14;31.00;65.80
44215;DHT22;29884;47.450;19.124;2022-07-23T07:51:39;31.50;64.40
44215;DHT22;29884;47.450;19.124;2022-07-23T07:54:05;31.80;61.90
44215;DHT22;29884;47.450;19.124;2022-07-23T07:56:31;31.80;62.70
44215;DHT22;29884;47.450;19.124;2022-07-23T07:58:56;31.80;62.70
44215;DHT22;29884;47.450;19.124;2022-07-23T08:01:22;32.10;62.40
44215;DHT22;29884;47.450;19.124;2022-07-23T08:03:48;32.20;60.80
44215;DHT22;29884;47.450;19.124;2022-07-23T08:06:13;32.10;60.60
44215;DHT22;29884;47.450;19.124;2022-07-23T08:08:39;32.40;60.00
44215;DHT22;29884;47.450;19.124;2022-07-23T08:11:05;32.40;60.10
44215;DHT22;29884;47.450;19.124;2022-07-23T08:13:31;32.60;59.60
44215;DHT22;29884;47.450;19.124;2022-07-23T08:15:56;32.50;60.00
44215;DHT22;29884;47.450;19.124;2022-07-23T08:18:22;32.70;59.30
44215;DHT22;29884;47.450;19.124;2022-07-23T08:20:48;33.00;58.90
44215;DHT22;29884;47.450;19.124;2022-07-23T08:23:13;33.00;58.10
44215;DHT22;29884;47.450;19.124;2022-07-23T08:25:41;33.00;57.70
44215;DHT22;29884;47.450;19.124;2022-07-23T08:28:09;32.90;57.10
44215;DHT22;29884;47.450;19.124;2022-07-23T08:30:37;32.80;56.70
44215;DHT22;29884;47.450;19.124;2022-07-23T08:33:05;33.10;57.60
44215;DHT22;29884;47.450;19.124;2022-07-23T08:35:34;33.80;56.10
44215;DHT22;29884;47.450;19.124;2022-07-23T08:38:02;34.10;54.60
44215;DHT22;29884;47.450;19.124;2022-07-23T08:40:31;34.00;54.70
44215;DHT22;29884;47.450;19.124;2022-07-23T08:42:57;34.50;54.70
44215;DHT22;29884;47.450;19.124;2022-07-23T08:45:24;34.50;54.70
44215;DHT22;29884;47.450;19.124;2022-07-23T08:47:56;34.50;52.10
44215;DHT22;29884;47.450;19.124;2022-07-23T08:50:24;34.40;52.30
44215;DHT22;29884;47.450;19.124;2022-07-23T08:52:51;34.70;52.10
44215;DHT22;29884;47.450;19.124;2022-07-23T08:55:18;34.70;51.90
44215;DHT22;29884;47.450;19.124;2022-07-23T08:57:46;35.10;51.30
44215;DHT22;29884;47.450;19.124;2022-07-23T09:00:13;35.40;50.30
44215;DHT22;29884;47.450;19.124;2022-07-23T09:02:41;35.40;49.40
44215;DHT22;29884;47.450;19.124;2022-07-23T09:05:09;35.40;49.40
44215;DHT22;29884;47.450;19.124;2022-07-23T09:07:36;35.30;49.60
44215;DHT22;29884;47.450;19.124;2022-07-23T09:10:09;35.70;50.50
44215;DHT22;29884;47.450;19.124;2022-07-23T09:12:36;35.80;49.60
44215;DHT22;29884;47.450;19.124;2022-07-23T09:15:07;36.20;48.60
44215;DHT22;29884;47.450;19.124;2022-07-23T09:17:41;36.10;49.90
44215;DHT22;29884;47.450;19.124;2022-07-23T09:20:15;36.20;52.60
44215;DHT22;29884;47.450;19.124;2022-07-23T09:22:46;36.30;51.20
44215;DHT22;29884;47.450;19.124;2022-07-23T09:25:15;36.30;50.30
44215;DHT22;29884;47.450;19.124;2022-07-23T09:27:58;36.30;50.70
44215;DHT22;29884;47.450;19.124;2022-07-23T09:30:30;36.80;48.50
44215;DHT22;29884;47.450;19.124;2022-07-23T09:33:14;36.60;47.90
44215;DHT22;29884;47.450;19.124;2022-07-23T09:38:14;36.70;49.40
44215;DHT22;29884;47.450;19.124;2022-07-23T09:40:41;36.60;49.00
44215;DHT22;29884;47.450;19.124;2022-07-23T09:43:06;36.90;48.40
44215;DHT22;29884;47.450;19.124;2022-07-23T09:45:32;36.90;47.80
44215;DHT22;29884;47.450;19.124;2022-07-23T09:48:16;37.00;47.40
44215;DHT22;29884;47.450;19.124;2022-07-23T09:50:44;37.40;48.20
44215;DHT22;29884;47.450;19.124;2022-07-23T09:53:23;37.70;47.20
44215;DHT22;29884;47.450;19.124;2022-07-23T09:55:49;37.50;47.00
44215;DHT22;29884;47.450;19.124;2022-07-23T09:58:17;37.30;46.80
44215;DHT22;29884;47.450;19.124;2022-07-23T10:00:47;37.50;46.00
44215;DHT22;29884;47.450;19.124;2022-07-23T10:03:15;37.20;46.00
44215;DHT22;29884;47.450;19.124;2022-07-23T10:05:41;37.60;46.40
44215;DHT22;29884;47.450;19.124;2022-07-23T10:08:11;37.40;45.10
44215;DHT22;29884;47.450;19.124;2022-07-23T10:10:41;37.80;45.90
44215;DHT22;29884;47.450;19.124;2022-07-23T10:13:07;38.00;44.20
44215;DHT22;29884;47.450;19.124;2022-07-23T10:15:51;38.10;43.30
44215;DHT22;29884;47.450;19.124;2022-07-23T10:18:17;38.10;44.30
44215;DHT22;29884;47.450;19.124;2022-07-23T10:20:43;38.10;43.70
44215;DHT22;29884;47.450;19.124;2022-07-23T10:23:30;38.10;43.80
44215;DHT22;29884;47.450;19.124;2022-07-23T10:26:13;37.90;43.80
44215;DHT22;29884;47.450;19.124;2022-07-23T10:37:12;37.50;44.20
44215;DHT22;29884;47.450;19.124;2022-07-23T10:39:40;37.60;43.70
44215;DHT22;29884;47.450;19.124;2022-07-23T10:42:15;37.30;44.10
44215;DHT22;29884;47.450;19.124;2022-07-23T10:44:57;37.50;43.80
44215;DHT22;29884;47.450;19.124;2022-07-23T10:47:27;38.00;43.30
44215;DHT22;29884;47.450;19.124;2022-07-23T10:50:27;38.30;43.50
44215;DHT22;29884;47.450;19.124;2022-07-23T10:58:01;38.60;43.30
44215;DHT22;29884;47.450;19.124;2022-07-23T11:00:29;38.30;42.90
44215;DHT22;29884;47.450;19.124;2022-07-23T11:02:57;38.30;43.10
44215;DHT22;29884;47.450;19.124;2022-07-23T11:29:38;38.70;42.30
44215;DHT22;29884;47.450;19.124;2022-07-23T11:31:58;38.70;42.80
44215;DHT22;29884;47.450;19.124;2022-07-23T11:37:06;38.60;42.30
44215;DHT22;29884;47.450;19.124;2022-07-23T11:39:33;38.50;41.50
44215;DHT22;29884;47.450;19.124;2022-07-23T11:42:01;38.50;41.10
44215;DHT22;29884;47.450;19.124;2022-07-23T11:44:34;38.40;41.50
44215;DHT22;29884;47.450;19.124;2022-07-23T11:47:06;38.30;41.20
44215;DHT22;29884;47.450;19.124;2022-07-23T11:49:32;38.30;41.50
44215;DHT22;29884;47.450;19.124;2022-07-23T11:52:12;38.40;41.30
44215;DHT22;29884;47.450;19.124;2022-07-23T11:54:53;38.70;40.50
44215;DHT22;29884;47.450;19.124;2022-07-23T11:57:21;39.00;40.50
44215;DHT22;29884;47.450;19.124;2022-07-23T11:59:52;39.00;40.90
44215;DHT22;29884;47.450;19.124;2022-07-23T12:02:19;38.80;41.40
44215;DHT22;29884;47.450;19.124;2022-07-23T12:04:48;38.90;41.20
44215;DHT22;29884;47.450;19.124;2022-07-23T12:09:56;39.20;40.30
44215;DHT22;29884;47.450;19.124;2022-07-23T12:12:22;39.30;40.40
44215;DHT22;29884;47.450;19.124;2022-07-23T12:14:56;39.30;40.20
44215;DHT22;29884;47.450;19.124;2022-07-23T12:17:28;39.30;39.70
44215;DHT22;29884;47.450;19.124;2022-07-23T12:19:56;38.90;40.50
44215;DHT22;29884;47.450;19.124;2022-07-23T12:22:24;38.70;40.50
44215;DHT22;29884;47.450;19.124;2022-07-23T12:25:02;38.60;41.20
44215;DHT22;29884;47.450;19.124;2022-07-23T12:27:29;38.70;41.00
44215;DHT22;29884;47.450;19.124;2022-07-23T12:29:55;39.10;40.40
44215;DHT22;29884;47.450;19.124;2022-07-23T12:32:24;39.00;40.20
44215;DHT22;29884;47.450;19.124;2022-07-23T12:35:08;39.00;39.80
44215;DHT22;29884;47.450;19.124;2022-07-23T12:37:38;39.00;40.00
44215;DHT22;29884;47.450;19.124;2022-07-23T12:40:25;38.60;39.80
44215;DHT22;29884;47.450;19.124;2022-07-23T12:42:57;39.00;39.90
44215;DHT22;29884;47.450;19.124;2022-07-23T12:45:24;39.40;40.40
44215;DHT22;29884;47.450;19.124;2022-07-23T12:48:01;39.50;39.50
44215;DHT22;29884;47.450;19.124;2022-07-23T12:53:12;39.60;39.00
44215;DHT22;29884;47.450;19.124;2022-07-23T12:55:38;39.20;39.30
44215;DHT22;29884;47.450;19.124;2022-07-23T12:58:10;39.30;38.50
44215;DHT22;29884;47.450;19.124;2022-07-23T13:01:00;39.50;39.10
44215;DHT22;29884;47.450;19.124;2022-07-23T13:05:58;39.70;37.70
44215;DHT22;29884;47.450;19.124;2022-07-23T13:08:25;39.50;38.50
44215;DHT22;29884;47.450;19.124;2022-07-23T13:10:51;39.70;38.20
44215;DHT22;29884;47.450;19.124;2022-07-23T13:13:22;39.60;38.20
44215;DHT22;29884;47.450;19.124;2022-07-23T13:15:48;39.90;38.40
44215;DHT22;29884;47.450;19.124;2022-07-23T13:18:14;39.80;38.00
44215;DHT22;29884;47.450;19.124;2022-07-23T13:20:39;39.70;37.70
44215;DHT22;29884;47.450;19.124;2022-07-23T13:23:06;39.60;37.80
44215;DHT22;29884;47.450;19.124;2022-07-23T13:25:32;39.40;38.20
44215;DHT22;29884;47.450;19.124;2022-07-23T13:27:58;39.40;38.10
44215;DHT22;29884;47.450;19.124;2022-07-23T13:30:24;39.40;37.70
44215;DHT22;29884;47.450;19.124;2022-07-23T13:32:50;39.40;37.60
44215;DHT22;29884;47.450;19.124;2022-07-23T13:35:15;39.40;37.20
44215;DHT22;29884;47.450;19.124;2022-07-23T13:37:41;39.20;36.90
44215;DHT22;29884;47.450;19.124;2022-07-23T13:40:07;39.50;36.60
44215;DHT22;29884;47.450;19.124;2022-07-23T13:42:35;39.60;36.60
44215;DHT22;29884;47.450;19.124;2022-07-23T13:45:01;39.40;36.80
44215;DHT22;29884;47.450;19.124;2022-07-23T13:47:27;39.30;36.90
44215;DHT22;29884;47.450;19.124;2022-07-23T13:49:52;39.30;37.00
44215;DHT22;29884;47.450;19.124;2022-07-23T13:52:18;39.60;37.40
44215;DHT22;29884;47.450;19.124;2022-07-23T13:54:44;39.30;36.10
44215;DHT22;29884;47.450;19.124;2022-07-23T13:57:09;38.80;36.80
44215;DHT22;29884;47.450;19.124;2022-07-23T13:59:35;38.70;37.30
44215;DHT22;29884;47.450;19.124;2022-07-23T14:02:03;38.60;37.70
44215;DHT22;29884;47.450;19.124;2022-07-23T14:04:29;38.60;37.20
44215;DHT22;29884;47.450;19.124;2022-07-23T14:06:54;38.70;37.50
44215;DHT22;29884;47.450;19.124;2022-07-23T14:09:20;38.90;37.40
44215;DHT22;29884;47.450;19.124;2022-07-23T14:11:46;39.10;37.90
44215;DHT22;29884;47.450;19.124;2022-07-23T14:14:12;39.00;37.70
44215;DHT22;29884;47.450;19.124;2022-07-23T14:16:37;39.00;38.20
44215;DHT22;29884;47.450;19.124;2022-07-23T14:19:03;39.30;38.00
44215;DHT22;29884;47.450;19.124;2022-07-23T14:21:29;39.20;37.40
44215;DHT22;29884;47.450;19.124;2022-07-23T14:23:54;39.00;37.40
44215;DHT22;29884;47.450;19.124;2022-07-23T14:26:21;39.00;37.70
44215;DHT22;29884;47.450;19.124;2022-07-23T14:28:46;38.90;37.80
44215;DHT22;29884;47.450;19.124;2022-07-23T14:31:12;38.90;38.00
44215;DHT22;29884;47.450;19.124;2022-07-23T14:33:38;38.80;38.00
44215;DHT22;29884;47.450;19.124;2022-07-23T14:36:03;39.00;38.00
44215;DHT22;29884;47.450;19.124;2022-07-23T14:38:29;39.10;37.90
44215;DHT22;29884;47.450;19.124;2022-07-23T14:40:56;39.00;37.40
44215;DHT22;29884;47.450;19.124;2022-07-23T14:43:22;39.00;37.60
44215;DHT22;29884;47.450;19.124;2022-07-23T14:45:48;39.00;37.30
44215;DHT22;29884;47.450;19.124;2022-07-23T14:48:14;39.00;37.50
44215;DHT22;29884;47.450;19.124;2022-07-23T14:50:39;39.00;37.50
44215;DHT22;29884;47.450;19.124;2022-07-23T14:53:05;38.70;37.00
44215;DHT22;29884;47.450;19.124;2022-07-23T14:55:33;38.30;37.30
44215;DHT22;29884;47.450;19.124;2022-07-23T14:57:59;37.90;37.40
44215;DHT22;29884;47.450;19.124;2022-07-23T15:00:25;37.60;36.70
44215;DHT22;29884;47.450;19.124;2022-07-23T15:02:52;37.50;37.90
44215;DHT22;29884;47.450;19.124;2022-07-23T15:05:19;37.40;38.20
44215;DHT22;29884;47.450;19.124;2022-07-23T15:07:45;37.20;39.00
44215;DHT22;29884;47.450;19.124;2022-07-23T15:10:11;37.00;39.00
44215;DHT22;29884;47.450;19.124;2022-07-23T15:12:37;36.90;38.90
44215;DHT22;29884;47.450;19.124;2022-07-23T15:15:03;36.80;39.60
44215;DHT22;29884;47.450;19.124;2022-07-23T15:17:30;36.70;39.20
44215;DHT22;29884;47.450;19.124;2022-07-23T15:19:55;36.60;39.80
44215;DHT22;29884;47.450;19.124;2022-07-23T15:22:22;36.60;39.90
44215;DHT22;29884;47.450;19.124;2022-07-23T15:24:48;36.60;40.30
44215;DHT22;29884;47.450;19.124;2022-07-23T15:27:14;36.50;40.90
44215;DHT22;29884;47.450;19.124;2022-07-23T15:29:41;36.50;40.50
44215;DHT22;29884;47.450;19.124;2022-07-23T15:32:07;36.40;40.80
44215;DHT22;29884;47.450;19.124;2022-07-23T15:34:33;36.30;41.10
44215;DHT22;29884;47.450;19.124;2022-07-23T15:37:02;36.30;40.80
44215;DHT22;29884;47.450;19.124;2022-07-23T15:39:27;36.20;41.00
44215;DHT22;29884;47.450;19.124;2022-07-23T15:41:53;36.10;40.90
44215;DHT22;29884;47.450;19.124;2022-07-23T15:44:19;36.10;41.00
44215;DHT22;29884;47.450;19.124;2022-07-23T15:46:45;35.70;43.70
44215;DHT22;29884;47.450;19.124;2022-07-23T15:49:13;34.80;46.80
44215;DHT22;29884;47.450;19.124;2022-07-23T15:51:39;34.10;49.00
44215;DHT22;29884;47.450;19.124;2022-07-23T15:54:05;33.50;50.60
44215;DHT22;29884;47.450;19.124;2022-07-23T15:56:31;33.30;51.50
44215;DHT22;29884;47.450;19.124;2022-07-23T15:58:57;33.20;52.10
44215;DHT22;29884;47.450;19.124;2022-07-23T16:01:23;32.90;53.10
44215;DHT22;29884;47.450;19.124;2022-07-23T16:03:50;32.80;53.40
44215;DHT22;29884;47.450;19.124;2022-07-23T16:06:16;32.70;53.80